sensor_id;sensor_type;location;lat;lon;timestamp;temperature;humidity
7014;DHT22;3547;50.774;12.918;2024-03-25T05:33:57;3.30;99.90
7014;DHT22;3547;50.774;12.918;2024-03-25T05:36:26;3.30;99.90
7014;DHT22;3547;50.774;12.918;2024-03-25T05:38:52;3.40;99.90
7014;DHT22;3547;50.774;12.918;2024-03-25T05:41:27;3.40;99.60
7014;DHT22;3547;50.774;12.918;2024-03-25T05:43:54;3.40;95.90
7014;DHT22;3547;50.774;12.918;2024-03-25T05:46:36;3.40;90.80
7014;DHT22;3547;50.774;12.918;2024-03-25T05:49:05;3.40;76.70
7014;DHT22;3547;50.774;12.918;2024-03-25T05:51:34;3.30;63.30
7014;DHT22;3547;50.774;12.918;2024-03-25T05:54:01;3.20;71.90
7014;DHT22;3547;50.774;12.918;2024-03-25T05:56:27;3.10;88.40
7014;DHT22;3547;50.774;12.918;2024-03-25T05:59:00;3.10;95.20
7014;DHT22;3547;50.774;12.918;2024-03-25T06:01:27;3.20;99.90
7014;DHT22;3547;50.774;12.918;2024-03-25T06:04:01;3.20;99.90
7014;DHT22;3547;50.774;12.918;2024-03-25T06:06:30;3.10;99.90
7014;DHT22;3547;50.774;12.918;2024-03-25T06:08:58;3.10;99.90
7014;DHT22;3547;50.774;12.918;2024-03-25T06:11:27;3.10;99.90
7014;DHT22;3547;50.774;12.918;2024-03-25T06:13:59;3.10;99.90
7014;DHT22;3547;50.774;12.918;2024-03-25T06:16:25;3.10;99.90
7014;DHT22;3547;50.774;12.918;2024-03-25T06:18:54;3.10;99.90
7014;DHT22;3547;50.774;12.918;2024-03-25T06:21:37;3.00;99.90
7014;DHT22;3547;50.774;12.918;2024-03-25T06:24:08;3.00;99.90
7014;DHT22;3547;50.774;12.918;2024-03-25T06:26:35;3.00;99.90
7014;DHT22;3547;50.774;12.918;2024-03-25T06:29:01;3.10;99.90
7014;DHT22;3547;50.774;12.918;2024-03-25T06:31:30;3.10;99.90
7014;DHT22;3547;50.774;12.918;2024-03-25T06:34:14;3.00;99.90
7014;DHT22;3547;50.774;12.918;2024-03-25T06:36:45;3.10;99.90
7014;DHT22;3547;50.774;12.918;2024-03-25T06:39:13;3.10;99.90
7014;DHT22;3547;50.774;12.918;2024-03-25T06:41:41;3.10;99.90
7014;DHT22;3547;50.774;12.918;2024-03-25T06:44:11;3.20;99.90
7014;DHT22;3547;50.774;12.918;2024-03-25T06:46:37;3.20;99.90
7014;DHT22;3547;50.774;12.918;2024-03-25T06:49:06;3.20;99.20
7014;DHT22;3547;50.774;12.918;2024-03-25T06:51:35;3.20;99.90
7014;DHT22;3547;50.774;12.918;2024-03-25T06:54:07;3.30;99.90
7014;DHT22;3547;50.774;12.918;2024-03-25T06:56:38;3.40;99.90
7014;DHT22;3547;50.774;12.918;2024-03-25T06:59:05;3.40;99.90
7014;DHT22;3547;50.774;12.918;2024-03-25T07:01:42;3.50;97.10
7014;DHT22;3547;50.774;12.918;2024-03-25T07:04:08;3.60;99.90
7014;DHT22;3547;50.774;12.918;2024-03-25T07:06:35;3.70;94.00
7014;DHT22;3547;50.774;12.918;2024-03-25T07:09:04;3.80;96.20
7014;DHT22;3547;50.774;12.918;2024-03-25T07:11:30;3.90;88.70
7014;DHT22;3547;50.774;12.918;2024-03-25T07:14:02;4.00;81.70
7014;DHT22;3547;50.774;12.918;2024-03-25T07:16:30;4.10;91.10
7014;DHT22;3547;50.774;12.918;2024-03-25T07:18:57;4.20;75.40
7014;DHT22;3547;50.774;12.918;2024-03-25T07:21:24;4.10;48.80
7014;DHT22;3547;50.774;12.918;2024-03-25T07:23:55;4.10;55.70
7014;DHT22;3547;50.774;12.918;2024-03-25T07:26:21;4.20;55.20
7014;DHT22;3547;50.774;12.918;2024-03-25T07:28:47;4.20;51.40
7014;DHT22;3547;50.774;12.918;2024-03-25T07:31:14;4.30;63.60
7014;DHT22;3547;50.774;12.918;2024-03-25T07:33:40;4.30;58.50
7014;DHT22;3547;50.774;12.918;2024-03-25T07:36:06;4.40;54.10
7014;DHT22;3547;50.774;12.918;2024-03-25T07:38:32;4.50;50.90
7014;DHT22;3547;50.774;12.918;2024-03-25T07:41:14;4.40;31.50
7014;DHT22;3547;50.774;12.918;2024-03-25T07:43:52;4.40;34.40
7014;DHT22;3547;50.774;12.918;2024-03-25T07:46:19;4.30;33.50
7014;DHT22;3547;50.774;12.918;2024-03-25T07:48:45;4.20;29.40
7014;DHT22;3547;50.774;12.918;2024-03-25T07:51:12;4.40;34.50
7014;DHT22;3547;50.774;12.918;2024-03-25T07:53:46;4.50;26.20
7014;DHT22;3547;50.774;12.918;2024-03-25T07:56:43;4.50;20.30
7014;DHT22;3547;50.774;12.918;2024-03-25T07:59:17;4.80;25.80
7014;DHT22;3547;50.774;12.918;2024-03-25T08:01:43;4.90;27.50
7014;DHT22;3547;50.774;12.918;2024-03-25T08:04:09;5.10;25.90
7014;DHT22;3547;50.774;12.918;2024-03-25T08:06:36;5.10;17.90
7014;DHT22;3547;50.774;12.918;2024-03-25T08:09:05;5.10;18.40
7014;DHT22;3547;50.774;12.918;2024-03-25T08:11:36;5.20;19.10
7014;DHT22;3547;50.774;12.918;2024-03-25T08:14:04;5.00;4.50
7014;DHT22;3547;50.774;12.918;2024-03-25T08:16:36;4.80;2.70
7014;DHT22;3547;50.774;12.918;2024-03-25T08:19:19;4.80;3.70
7014;DHT22;3547;50.774;12.918;2024-03-25T08:21:48;4.80;8.10
7014;DHT22;3547;50.774;12.918;2024-03-25T08:24:30;5.00;4.90
7014;DHT22;3547;50.774;12.918;2024-03-25T08:26:56;5.00;1.00
7014;DHT22;3547;50.774;12.918;2024-03-25T08:29:23;4.90;1.00
7014;DHT22;3547;50.774;12.918;2024-03-25T08:31:49;5.10;10.80
7014;DHT22;3547;50.774;12.918;2024-03-25T08:34:15;5.20;11.70
7014;DHT22;3547;50.774;12.918;2024-03-25T08:36:41;5.60;7.60
7014;DHT22;3547;50.774;12.918;2024-03-25T08:39:21;5.50;1.00
7014;DHT22;3547;50.774;12.918;2024-03-25T08:41:48;5.20;1.00
7014;DHT22;3547;50.774;12.918;2024-03-25T08:47:39;5.10;1.90
7014;DHT22;3547;50.774;12.918;2024-03-25T08:50:06;4.70;1.50
7014;DHT22;3547;50.774;12.918;2024-03-25T08:52:33;4.50;8.30
7014;DHT22;3547;50.774;12.918;2024-03-25T08:54:59;4.70;21.30
7014;DHT22;3547;50.774;12.918;2024-03-25T08:57:28;4.90;23.60
7014;DHT22;3547;50.774;12.918;2024-03-25T08:59:55;4.90;9.70
7014;DHT22;3547;50.774;12.918;2024-03-25T09:02:21;4.80;1.00
7014;DHT22;3547;50.774;12.918;2024-03-25T09:04:48;4.90;9.40
7014;DHT22;3547;50.774;12.918;2024-03-25T09:07:18;4.90;2.30
7014;DHT22;3547;50.774;12.918;2024-03-25T09:09:44;5.00;1.90
7014;DHT22;3547;50.774;12.918;2024-03-25T09:12:28;5.20;8.60
7014;DHT22;3547;50.774;12.918;2024-03-25T09:14:55;5.30;8.30
7014;DHT22;3547;50.774;12.918;2024-03-25T09:17:21;5.50;8.00
7014;DHT22;3547;50.774;12.918;2024-03-25T09:19:49;5.70;15.70
7014;DHT22;3547;50.774;12.918;2024-03-25T09:22:15;6.00;2.90
7014;DHT22;3547;50.774;12.918;2024-03-25T09:24:41;5.80;6.10
7014;DHT22;3547;50.774;12.918;2024-03-25T09:27:07;6.20;11.90
7014;DHT22;3547;50.774;12.918;2024-03-25T09:29:36;6.30;1.00
7014;DHT22;3547;50.774;12.918;2024-03-25T09:32:06;5.70;1.00
7014;DHT22;3547;50.774;12.918;2024-03-25T09:34:32;5.60;1.00
7014;DHT22;3547;50.774;12.918;2024-03-25T09:36:59;5.50;1.00
7014;DHT22;3547;50.774;12.918;2024-03-25T09:39:25;5.40;1.00
7014;DHT22;3547;50.774;12.918;2024-03-25T09:41:54;5.30;1.00
7014;DHT22;3547;50.774;12.918;2024-03-25T09:44:25;5.40;1.00
7014;DHT22;3547;50.774;12.918;2024-03-25T09:46:54;5.40;1.00
7014;DHT22;3547;50.774;12.918;2024-03-25T09:49:20;5.40;1.00
7014;DHT22;3547;50.774;12.918;2024-03-25T09:51:47;5.30;1.00
7014;DHT22;3547;50.774;12.918;2024-03-25T09:54:13;5.20;1.00
7014;DHT22;3547;50.774;12.918;2024-03-25T09:56:39;5.00;1.00
7014;DHT22;3547;50.774;12.918;2024-03-25T09:59:08;5.10;1.00
7014;DHT22;3547;50.774;12.918;2024-03-25T10:01:35;5.40;1.00
7014;DHT22;3547;50.774;12.918;2024-03-25T10:04:04;5.30;1.00
7014;DHT22;3547;50.774;12.918;2024-03-25T10:06:30;5.40;1.00
7014;DHT22;3547;50.774;12.918;2024-03-25T10:09:05;5.70;1.00
7014;DHT22;3547;50.774;12.918;2024-03-25T10:11:32;6.00;1.00
7014;DHT22;3547;50.774;12.918;2024-03-25T10:14:01;6.00;1.00
7014;DHT22;3547;50.774;12.918;2024-03-25T10:16:31;6.20;1.00
7014;DHT22;3547;50.774;12.918;2024-03-25T10:18:57;6.30;1.00
7014;DHT22;3547;50.774;12.918;2024-03-25T10:21:26;6.30;1.00
7014;DHT22;3547;50.774;12.918;2024-03-25T10:23:53;6.10;1.00
7014;DHT22;3547;50.774;12.918;2024-03-25T10:26:33;6.20;1.00
7014;DHT22;3547;50.774;12.918;2024-03-25T10:29:04;6.10;1.00
7014;DHT22;3547;50.774;12.918;2024-03-25T10:31:38;5.80;1.00
7014;DHT22;3547;50.774;12.918;2024-03-25T10:34:08;5.80;1.00
7014;DHT22;3547;50.774;12.918;2024-03-25T10:36:37;6.00;1.00
7014;DHT22;3547;50.774;12.918;2024-03-25T10:39:13;6.10;1.00
7014;DHT22;3547;50.774;12.918;2024-03-25T10:41:47;6.30;1.00
7014;DHT22;3547;50.774;12.918;2024-03-25T10:44:14;6.40;1.00
7014;DHT22;3547;50.774;12.918;2024-03-25T10:50:23;6.40;1.00
7014;DHT22;3547;50.774;12.918;2024-03-25T10:53:04;6.30;1.00
7014;DHT22;3547;50.774;12.918;2024-03-25T10:55:37;6.60;1.00
7014;DHT22;3547;50.774;12.918;2024-03-25T11:01:10;6.70;1.00
7014;DHT22;3547;50.774;12.918;2024-03-25T11:03:37;6.80;1.00
7014;DHT22;3547;50.774;12.918;2024-03-25T11:06:06;7.00;1.00
7014;DHT22;3547;50.774;12.918;2024-03-25T11:08:39;7.10;1.00
7014;DHT22;3547;50.774;12.918;2024-03-25T11:11:07;6.80;1.00
7014;DHT22;3547;50.774;12.918;2024-03-25T11:13:37;6.80;1.00
7014;DHT22;3547;50.774;12.918;2024-03-25T11:16:08;7.20;1.00
7014;DHT22;3547;50.774;12.918;2024-03-25T11:18:35;7.40;1.00
7014;DHT22;3547;50.774;12.918;2024-03-25T11:21:09;7.80;1.00
7014;DHT22;3547;50.774;12.918;2024-03-25T11:23:46;7.90;1.00
7014;DHT22;3547;50.774;12.918;2024-03-25T11:26:24;8.10;1.00
7014;DHT22;3547;50.774;12.918;2024-03-25T11:28:51;7.90;1.00
7014;DHT22;3547;50.774;12.918;2024-03-25T11:31:25;7.60;1.00
7014;DHT22;3547;50.774;12.918;2024-03-25T11:33:52;7.40;1.00
7014;DHT22;3547;50.774;12.918;2024-03-25T11:36:18;7.20;1.00
7014;DHT22;3547;50.774;12.918;2024-03-25T11:39:01;7.00;1.00
7014;DHT22;3547;50.774;12.918;2024-03-25T11:41:32;6.70;1.00
7014;DHT22;3547;50.774;12.918;2024-03-25T11:44:00;6.60;1.00
7014;DHT22;3547;50.774;12.918;2024-03-25T11:46:28;6.70;1.00
7014;DHT22;3547;50.774;12.918;2024-03-25T11:49:04;6.50;1.00
7014;DHT22;3547;50.774;12.918;2024-03-25T11:51:33;6.70;1.00
7014;DHT22;3547;50.774;12.918;2024-03-25T11:54:02;6.80;1.00
7014;DHT22;3547;50.774;12.918;2024-03-25T11:56:31;6.80;1.00
7014;DHT22;3547;50.774;12.918;2024-03-25T11:59:02;6.80;1.00
7014;DHT22;3547;50.774;12.918;2024-03-25T12:01:31;6.80;1.00
7014;DHT22;3547;50.774;12.918;2024-03-25T12:03:57;6.80;1.00
7014;DHT22;3547;50.774;12.918;2024-03-25T12:06:23;6.70;1.00
7014;DHT22;3547;50.774;12.918;2024-03-25T12:08:50;6.80;1.00
7014;DHT22;3547;50.774;12.918;2024-03-25T12:11:48;6.80;1.00
7014;DHT22;3547;50.774;12.918;2024-03-25T12:14:17;7.00;1.00
7014;DHT22;3547;50.774;12.918;2024-03-25T12:16:48;7.10;1.00
7014;DHT22;3547;50.774;12.918;2024-03-25T12:19:16;7.20;1.00
7014;DHT22;3547;50.774;12.918;2024-03-25T12:21:44;7.60;1.00
7014;DHT22;3547;50.774;12.918;2024-03-25T12:24:13;8.40;1.00
7014;DHT22;3547;50.774;12.918;2024-03-25T12:26:40;8.50;1.00
7014;DHT22;3547;50.774;12.918;2024-03-25T12:29:06;8.60;1.00
7014;DHT22;3547;50.774;12.918;2024-03-25T12:31:35;8.40;1.00
7014;DHT22;3547;50.774;12.918;2024-03-25T12:34:09;8.80;1.00
7014;DHT22;3547;50.774;12.918;2024-03-25T12:36:38;8.70;1.00
7014;DHT22;3547;50.774;12.918;2024-03-25T12:39:04;8.50;1.00
7014;DHT22;3547;50.774;12.918;2024-03-25T12:41:31;8.20;1.00
7014;DHT22;3547;50.774;12.918;2024-03-25T12:44:05;8.00;1.00
7014;DHT22;3547;50.774;12.918;2024-03-25T12:46:31;7.90;1.00
7014;DHT22;3547;50.774;12.918;2024-03-25T12:49:01;8.10;1.00
7014;DHT22;3547;50.774;12.918;2024-03-25T12:51:27;8.40;1.00
7014;DHT22;3547;50.774;12.918;2024-03-25T12:53:53;8.60;1.00
7014;DHT22;3547;50.774;12.918;2024-03-25T12:56:24;8.40;1.00
7014;DHT22;3547;50.774;12.918;2024-03-25T12:58:53;8.10;1.00
7014;DHT22;3547;50.774;12.918;2024-03-25T13:01:19;7.90;1.00
7014;DHT22;3547;50.774;12.918;2024-03-25T13:03:45;7.90;1.00
7014;DHT22;3547;50.774;12.918;2024-03-25T13:06:20;8.10;1.00
7014;DHT22;3547;50.774;12.918;2024-03-25T13:08:46;8.20;1.00
7014;DHT22;3547;50.774;12.918;2024-03-25T13:11:15;8.00;1.00
7014;DHT22;3547;50.774;12.918;2024-03-25T13:13:44;8.20;1.00
7014;DHT22;3547;50.774;12.918;2024-03-25T13:16:12;8.10;1.00
7014;DHT22;3547;50.774;12.918;2024-03-25T13:18:39;7.90;1.00
7014;DHT22;3547;50.774;12.918;2024-03-25T13:21:05;7.80;1.00
7014;DHT22;3547;50.774;12.918;2024-03-25T13:23:31;8.00;1.00
7014;DHT22;3547;50.774;12.918;2024-03-25T13:26:00;7.90;1.00
7014;DHT22;3547;50.774;12.918;2024-03-25T13:28:31;7.90;1.00
7014;DHT22;3547;50.774;12.918;2024-03-25T13:30:57;8.10;1.00
7014;DHT22;3547;50.774;12.918;2024-03-25T13:33:27;8.70;1.00
7014;DHT22;3547;50.774;12.918;2024-03-25T13:35:54;9.40;1.00
7014;DHT22;3547;50.774;12.918;2024-03-25T13:38:25;9.50;1.00
7014;DHT22;3547;50.774;12.918;2024-03-25T13:40:57;9.00;1.00
7014;DHT22;3547;50.774;12.918;2024-03-25T13:43:23;8.60;1.00
7014;DHT22;3547;50.774;12.918;2024-03-25T13:45:55;8.70;1.00
7014;DHT22;3547;50.774;12.918;2024-03-25T13:48:30;8.60;1.00
7014;DHT22;3547;50.774;12.918;2024-03-25T13:50:56;8.90;1.00
7014;DHT22;3547;50.774;12.918;2024-03-25T13:53:24;8.50;1.00
7014;DHT22;3547;50.774;12.918;2024-03-25T13:56:15;8.10;1.00
7014;DHT22;3547;50.774;12.918;2024-03-25T13:58:44;8.30;1.00
7014;DHT22;3547;50.774;12.918;2024-03-25T14:01:13;9.10;1.00
7014;DHT22;3547;50.774;12.918;2024-03-25T14:03:43;9.90;1.00
7014;DHT22;3547;50.774;12.918;2024-03-25T14:06:11;10.20;1.00
7014;DHT22;3547;50.774;12.918;2024-03-25T14:08:40;10.50;1.00
7014;DHT22;3547;50.774;12.918;2024-03-25T14:11:08;10.80;1.00
7014;DHT22;3547;50.774;12.918;2024-03-25T14:13:40;11.20;1.00
7014;DHT22;3547;50.774;12.918;2024-03-25T14:16:06;10.40;1.00
7014;DHT22;3547;50.774;12.918;2024-03-25T14:18:32;10.40;1.00
7014;DHT22;3547;50.774;12.918;2024-03-25T14:21:05;10.00;1.00
7014;DHT22;3547;50.774;12.918;2024-03-25T14:23:31;9.50;1.00
7014;DHT22;3547;50.774;12.918;2024-03-25T14:25:57;9.70;1.00
7014;DHT22;3547;50.774;12.918;2024-03-25T14:28:26;10.20;1.00
7014;DHT22;3547;50.774;12.918;2024-03-25T14:31:00;10.60;1.00
7014;DHT22;3547;50.774;12.918;2024-03-25T14:33:26;10.60;1.00
7014;DHT22;3547;50.774;12.918;2024-03-25T14:35:55;10.60;1.00
7014;DHT22;3547;50.774;12.918;2024-03-25T14:38:21;9.80;1.00
7014;DHT22;3547;50.774;12.918;2024-03-25T14:40:47;9.30;1.00
7014;DHT22;3547;50.774;12.918;2024-03-25T14:43:13;9.20;1.00
7014;DHT22;3547;50.774;12.918;2024-03-25T14:45:42;9.40;1.00
7014;DHT22;3547;50.774;12.918;2024-03-25T14:48:08;9.60;1.00
7014;DHT22;3547;50.774;12.918;2024-03-25T14:51:04;9.70;1.00
7014;DHT22;3547;50.774;12.918;2024-03-25T14:57:09;9.80;1.00
7014;DHT22;3547;50.774;12.918;2024-03-25T14:59:36;9.60;1.00
7014;DHT22;3547;50.774;12.918;2024-03-25T15:02:02;9.50;1.00
7014;DHT22;3547;50.774;12.918;2024-03-25T15:04:32;10.20;1.00
7014;DHT22;3547;50.774;12.918;2024-03-25T15:06:59;10.70;1.00
7014;DHT22;3547;50.774;12.918;2024-03-25T15:09:28;11.00;1.00
7014;DHT22;3547;50.774;12.918;2024-03-25T15:11:55;10.80;1.00
7014;DHT22;3547;50.774;12.918;2024-03-25T15:14:21;11.40;1.00
7014;DHT22;3547;50.774;12.918;2024-03-25T15:16:47;12.00;1.00
7014;DHT22;3547;50.774;12.918;2024-03-25T15:19:13;12.00;1.00
7014;DHT22;3547;50.774;12.918;2024-03-25T15:21:43;11.80;1.00
7014;DHT22;3547;50.774;12.918;2024-03-25T15:24:09;11.90;1.00
7014;DHT22;3547;50.774;12.918;2024-03-25T15:26:38;11.90;1.00
7014;DHT22;3547;50.774;12.918;2024-03-25T15:29:04;11.10;1.00
7014;DHT22;3547;50.774;12.918;2024-03-25T15:31:30;11.10;1.00
7014;DHT22;3547;50.774;12.918;2024-03-25T15:33:57;11.80;1.00
7014;DHT22;3547;50.774;12.918;2024-03-25T15:36:23;12.40;1.00
7014;DHT22;3547;50.774;12.918;2024-03-25T15:38:51;12.60;1.00
7014;DHT22;3547;50.774;12.918;2024-03-25T15:41:18;11.80;1.00
7014;DHT22;3547;50.774;12.918;2024-03-25T15:43:51;11.40;1.00
7014;DHT22;3547;50.774;12.918;2024-03-25T15:46:17;11.40;1.00
7014;DHT22;3547;50.774;12.918;2024-03-25T15:48:46;11.10;1.00
7014;DHT22;3547;50.774;12.918;2024-03-25T15:51:13;11.30;1.00
7014;DHT22;3547;50.774;12.918;2024-03-25T15:53:39;11.70;1.00
7014;DHT22;3547;50.774;12.918;2024-03-25T15:56:05;11.50;1.00
7014;DHT22;3547;50.774;12.918;2024-03-25T15:58:33;11.70;1.00
7014;DHT22;3547;50.774;12.918;2024-03-25T16:00:59;10.80;1.00
7014;DHT22;3547;50.774;12.918;2024-03-25T16:03:25;10.20;1.00
7014;DHT22;3547;50.774;12.918;2024-03-25T16:05:54;11.20;1.00
7014;DHT22;3547;50.774;12.918;2024-03-25T16:08:20;12.10;1.00
7014;DHT22;3547;50.774;12.918;2024-03-25T16:10:46;12.30;1.00
7014;DHT22;3547;50.774;12.918;2024-03-25T16:13:12;13.30;1.00
7014;DHT22;3547;50.774;12.918;2024-03-25T16:15:41;15.00;1.00
7014;DHT22;3547;50.774;12.918;2024-03-25T16:18:07;16.90;1.00
7014;DHT22;3547;50.774;12.918;2024-03-25T16:20:35;18.50;1.00
7014;DHT22;3547;50.774;12.918;2024-03-25T16:23:01;19.40;1.00
7014;DHT22;3547;50.774;12.918;2024-03-25T16:25:27;20.40;1.00
7014;DHT22;3547;50.774;12.918;2024-03-25T16:27:53;20.30;1.00
7014;DHT22;3547;50.774;12.918;2024-03-25T16:30:27;19.60;1.00
7014;DHT22;3547;50.774;12.918;2024-03-25T16:32:53;19.40;1.00
7014;DHT22;3547;50.774;12.918;2024-03-25T16:35:19;19.60;1.00
7014;DHT22;3547;50.774;12.918;2024-03-25T16:37:45;20.10;1.00
7014;DHT22;3547;50.774;12.918;2024-03-25T16:40:11;19.60;1.00
7014;DHT22;3547;50.774;12.918;2024-03-25T16:42:37;17.50;1.00
7014;DHT22;3547;50.774;12.918;2024-03-25T16:45:04;16.00;1.00
7014;DHT22;3547;50.774;12.918;2024-03-25T16:47:31;14.30;1.00
7014;DHT22;3547;50.774;12.918;2024-03-25T16:49:57;13.10;1.00
7014;DHT22;3547;50.774;12.918;2024-03-25T16:52:23;12.40;1.00
7014;DHT22;3547;50.774;12.918;2024-03-25T16:54:49;11.70;1.00
7014;DHT22;3547;50.774;12.918;2024-03-25T16:57:15;11.20;1.00
7014;DHT22;3547;50.774;12.918;2024-03-25T16:59:42;10.80;1.00
7014;DHT22;3547;50.774;12.918;2024-03-25T17:02:10;10.60;1.00
7014;DHT22;3547;50.774;12.918;2024-03-25T17:04:36;10.10;1.00
7014;DHT22;3547;50.774;12.918;2024-03-25T17:07:02;9.70;1.00
7014;DHT22;3547;50.774;12.918;2024-03-25T17:09:29;9.50;1.00
7014;DHT22;3547;50.774;12.918;2024-03-25T17:11:55;9.30;1.00
7014;DHT22;3547;50.774;12.918;2024-03-25T17:14:21;9.30;1.00
7014;DHT22;3547;50.774;12.918;2024-03-25T17:16:47;9.20;1.00
7014;DHT22;3547;50.774;12.918;2024-03-25T17:19:13;9.00;1.00
7014;DHT22;3547;50.774;12.918;2024-03-25T17:21:39;8.70;1.00
7014;DHT22;3547;50.774;12.918;2024-03-25T17:24:05;8.40;1.00
7014;DHT22;3547;50.774;12.918;2024-03-25T17:26:34;8.20;1.00
7014;DHT22;3547;50.774;12.918;2024-03-25T17:29:01;8.00;1.00
7014;DHT22;3547;50.774;12.918;2024-03-25T17:31:27;7.80;1.00
7014;DHT22;3547;50.774;12.918;2024-03-25T17:33:53;7.60;1.00
7014;DHT22;3547;50.774;12.918;2024-03-25T17:36:20;7.30;1.00
7014;DHT22;3547;50.774;12.918;2024-03-25T17:38:46;7.10;1.00
7014;DHT22;3547;50.774;12.918;2024-03-25T17:41:12;6.90;1.00
7014;DHT22;3547;50.774;12.918;2024-03-25T17:43:38;6.80;1.00
7014;DHT22;3547;50.774;12.918;2024-03-25T17:46:05;6.70;1.00
7014;DHT22;3547;50.774;12.918;2024-03-25T17:48:31;6.50;1.00
7014;DHT22;3547;50.774;12.918;2024-03-25T17:50:58;6.40;1.00
7014;DHT22;3547;50.774;12.918;2024-03-25T17:53:28;6.20;1.00
7014;DHT22;3547;50.774;12.918;2024-03-25T17:55:55;6.10;1.00
7014;DHT22;3547;50.774;12.918;2024-03-25T17:58:21;5.90;1.00
7014;DHT22;3547;50.774;12.918;2024-03-25T18:00:48;5.60;1.00
7014;DHT22;3547;50.774;12.918;2024-03-25T18:03:18;5.50;1.00
7014;DHT22;3547;50.774;12.918;2024-03-25T18:05:44;5.50;1.00
7014;DHT22;3547;50.774;12.918;2024-03-25T18:08:10;5.30;1.00
7014;DHT22;3547;50.774;12.918;2024-03-25T18:10:37;5.20;1.00
7014;DHT22;3547;50.774;12.918;2024-03-25T18:13:09;5.10;1.00
7014;DHT22;3547;50.774;12.918;2024-03-25T18:15:50;5.00;1.00
7014;DHT22;3547;50.774;12.918;2024-03-25T18:18:17;4.80;1.00
7014;DHT22;3547;50.774;12.918;2024-03-25T18:20:44;4.70;1.00
7014;DHT22;3547;50.774;12.918;2024-03-25T18:23:11;4.60;1.00
7014;DHT22;3547;50.774;12.918;2024-03-25T18:25:38;4.50;1.00
7014;DHT22;3547;50.774;12.918;2024-03-25T18:28:07;4.50;1.00
7014;DHT22;3547;50.774;12.918;2024-03-25T18:30:37;4.40;1.00
7014;DHT22;3547;50.774;12.918;2024-03-25T18:33:04;4.30;1.00
7014;DHT22;3547;50.774;12.918;2024-03-25T18:35:38;4.20;1.00
7014;DHT22;3547;50.774;12.918;2024-03-25T18:38:06;4.20;1.00
7014;DHT22;3547;50.774;12.918;2024-03-25T18:40:32;4.10;1.00
7014;DHT22;3547;50.774;12.918;2024-03-25T18:42:58;4.10;1.00
7014;DHT22;3547;50.774;12.918;2024-03-25T18:45:25;4.00;1.00
7014;DHT22;3547;50.774;12.918;2024-03-25T18:47:51;3.90;1.00
7014;DHT22;3547;50.774;12.918;2024-03-25T18:50:17;3.90;1.00
7014;DHT22;3547;50.774;12.918;2024-03-25T18:52:43;3.80;1.00
7014;DHT22;3547;50.774;12.918;2024-03-25T18:55:09;3.70;1.00
7014;DHT22;3547;50.774;12.918;2024-03-25T18:57:35;3.60;1.00
7014;DHT22;3547;50.774;12.918;2024-03-25T19:00:02;3.60;1.00
7014;DHT22;3547;50.774;12.918;2024-03-25T19:02:32;3.50;1.00
7014;DHT22;3547;50.774;12.918;2024-03-25T19:04:58;3.40;1.00
7014;DHT22;3547;50.774;12.918;2024-03-25T19:07:24;3.40;1.00
7014;DHT22;3547;50.774;12.918;2024-03-25T19:09:51;3.30;1.00
7014;DHT22;3547;50.774;12.918;2024-03-25T19:12:17;3.30;1.00
7014;DHT22;3547;50.774;12.918;2024-03-25T19:14:43;3.20;1.00
7014;DHT22;3547;50.774;12.918;2024-03-25T19:17:09;3.20;1.00
7014;DHT22;3547;50.774;12.918;2024-03-25T19:19:52;3.10;1.00
7014;DHT22;3547;50.774;12.918;2024-03-25T19:22:20;3.00;1.00
7014;DHT22;3547;50.774;12.918;2024-03-25T19:24:51;3.00;1.00
7014;DHT22;3547;50.774;12.918;2024-03-25T19:27:17;3.00;1.00
7014;DHT22;3547;50.774;12.918;2024-03-25T19:29:46;2.90;1.00
7014;DHT22;3547;50.774;12.918;2024-03-25T19:32:12;2.90;1.00
7014;DHT22;3547;50.774;12.918;2024-03-25T19:34:38;2.90;1.00
7014;DHT22;3547;50.774;12.918;2024-03-25T19:37:04;2.80;1.00
7014;DHT22;3547;50.774;12.918;2024-03-25T19:39:31;2.80;1.00
7014;DHT22;3547;50.774;12.918;2024-03-25T19:41:59;2.70;1.00
7014;DHT22;3547;50.774;12.918;2024-03-25T19:44:25;2.70;1.00
7014;DHT22;3547;50.774;12.918;2024-03-25T19:46:55;2.70;1.00
7014;DHT22;3547;50.774;12.918;2024-03-25T19:49:21;2.60;1.00
7014;DHT22;3547;50.774;12.918;2024-03-25T19:51:47;2.60;1.00
7014;DHT22;3547;50.774;12.918;2024-03-25T19:54:14;2.60;1.00
7014;DHT22;3547;50.774;12.918;2024-03-25T19:56:41;2.60;1.00
7014;DHT22;3547;50.774;12.918;2024-03-25T19:59:07;2.50;1.00
7014;DHT22;3547;50.774;12.918;2024-03-25T20:01:34;2.50;1.00
7014;DHT22;3547;50.774;12.918;2024-03-25T20:07:23;2.50;1.00
7014;DHT22;3547;50.774;12.918;2024-03-25T20:09:49;2.50;1.00
7014;DHT22;3547;50.774;12.918;2024-03-25T20:12:15;2.50;1.00
7014;DHT22;3547;50.774;12.918;2024-03-25T20:14:45;2.50;1.00
7014;DHT22;3547;50.774;12.918;2024-03-25T20:17:11;2.50;1.00
7014;DHT22;3547;50.774;12.918;2024-03-25T20:19:40;2.50;1.00
7014;DHT22;3547;50.774;12.918;2024-03-25T20:22:06;2.40;1.00
7014;DHT22;3547;50.774;12.918;2024-03-25T20:24:32;2.40;1.00
7014;DHT22;3547;50.774;12.918;2024-03-25T20:26:58;2.30;1.00
7014;DHT22;3547;50.774;12.918;2024-03-25T20:29:24;2.30;1.00
7014;DHT22;3547;50.774;12.918;2024-03-25T20:31:50;2.30;1.00
7014;DHT22;3547;50.774;12.918;2024-03-25T20:37:39;2.30;1.00
7014;DHT22;3547;50.774;12.918;2024-03-25T20:40:12;2.30;1.00
7014;DHT22;3547;50.774;12.918;2024-03-25T20:42:38;2.30;1.00
7014;DHT22;3547;50.774;12.918;2024-03-25T20:45:05;2.30;1.00
7014;DHT22;3547;50.774;12.918;2024-03-25T20:47:31;2.20;1.00
7014;DHT22;3547;50.774;12.918;2024-03-25T20:50:03;2.20;1.00
7014;DHT22;3547;50.774;12.918;2024-03-25T20:52:36;2.20;1.00
7014;DHT22;3547;50.774;12.918;2024-03-25T20:55:02;2.10;1.00
7014;DHT22;3547;50.774;12.918;2024-03-25T20:57:31;2.00;1.00
7014;DHT22;3547;50.774;12.918;2024-03-25T20:59:57;2.00;1.00
7014;DHT22;3547;50.774;12.918;2024-03-25T21:02:27;1.90;1.00
7014;DHT22;3547;50.774;12.918;2024-03-25T21:04:55;1.90;1.00
7014;DHT22;3547;50.774;12.918;2024-03-25T21:07:21;1.90;1.00
7014;DHT22;3547;50.774;12.918;2024-03-25T21:09:47;1.80;1.00
7014;DHT22;3547;50.774;12.918;2024-03-25T21:12:14;1.80;1.00
7014;DHT22;3547;50.774;12.918;2024-03-25T21:14:40;1.80;1.00
7014;DHT22;3547;50.774;12.918;2024-03-25T21:17:09;1.80;1.00
7014;DHT22;3547;50.774;12.918;2024-03-25T21:19:36;1.80;1.00
7014;DHT22;3547;50.774;12.918;2024-03-25T21:22:02;1.70;1.00
7014;DHT22;3547;50.774;12.918;2024-03-25T21:24:28;1.80;1.00
7014;DHT22;3547;50.774;12.918;2024-03-25T21:26:57;1.80;1.00
7014;DHT22;3547;50.774;12.918;2024-03-25T21:29:23;1.80;1.00
7014;DHT22;3547;50.774;12.918;2024-03-25T21:31:49;1.70;1.00
7014;DHT22;3547;50.774;12.918;2024-03-25T21:34:16;1.70;1.00
7014;DHT22;3547;50.774;12.918;2024-03-25T21:36:42;1.80;1.00
7014;DHT22;3547;50.774;12.918;2024-03-25T21:39:08;1.80;1.00
7014;DHT22;3547;50.774;12.918;2024-03-25T21:41:37;1.90;1.00
7014;DHT22;3547;50.774;12.918;2024-03-25T21:47:30;2.00;1.00
7014;DHT22;3547;50.774;12.918;2024-03-25T21:49:56;2.00;1.00
7014;DHT22;3547;50.774;12.918;2024-03-25T21:52:23;2.00;1.00
7014;DHT22;3547;50.774;12.918;2024-03-25T21:54:49;2.00;1.00
7014;DHT22;3547;50.774;12.918;2024-03-25T21:57:15;2.00;1.00
7014;DHT22;3547;50.774;12.918;2024-03-25T21:59:41;2.00;1.00
7014;DHT22;3547;50.774;12.918;2024-03-25T22:02:08;1.90;1.00
7014;DHT22;3547;50.774;12.918;2024-03-25T22:04:37;1.90;1.00
7014;DHT22;3547;50.774;12.918;2024-03-25T22:07:03;1.90;1.00
7014;DHT22;3547;50.774;12.918;2024-03-25T22:09:29;1.80;1.00
7014;DHT22;3547;50.774;12.918;2024-03-25T22:11:56;1.70;1.00
7014;DHT22;3547;50.774;12.918;2024-03-25T22:14:22;1.70;1.00
7014;DHT22;3547;50.774;12.918;2024-03-25T22:16:50;1.70;1.00